Time;durP1;ratioP1;P1;durP2;ratioP2;P2;SDS_P1;SDS_P2;PMS_P1;PMS_P2;Temp;Humidity;BMP_temperature;BMP_pressure;BME280_temperature;BME280_humidity;BME280_pressure;Samples;Min_cycle;Max_cycle;Signal;HPM_P1;HPM_P2
2023/12/18 00:02:18;;;;;;;16.73;10.82;;;;;;;-1.43;57.84;95655.72;4992342;28;20457;-79
2023/12/18 00:04:44;;;;;;;14.15;10.05;;;;;;;-1.36;57.82;95672.19;5009022;28;20034;-80
2023/12/18 00:07:11;;;;;;;17.00;11.70;;;;;;;-1.58;57.75;95661.06;5003946;28;20689;-78
2023/12/18 00:09:38;;;;;;;17.88;12.05;;;;;;;-1.46;57.76;95671.75;5006947;28;20025;-80
2023/12/18 00:12:04;;;;;;;16.17;11.55;;;;;;;-1.34;57.79;95674.63;4986556;28;20042;-79
2023/12/18 00:14:29;;;;;;;20.05;13.43;;;;;;;-1.39;57.97;95655.13;5000660;28;20097;-80
2023/12/18 00:16:55;;;;;;;21.80;12.40;;;;;;;-1.36;58.16;95661.75;4989972;28;20508;-79
2023/12/18 00:19:21;;;;;;;19.90;12.45;;;;;;;-1.39;58.13;95644.69;5012385;28;20042;-80
2023/12/18 00:21:47;;;;;;;21.55;11.65;;;;;;;-1.48;58.29;95624.16;5000946;28;20029;-79
2023/12/18 00:24:12;;;;;;;19.30;12.50;;;;;;;-1.50;58.33;95615.72;4998844;28;20076;-79
2023/12/18 00:26:38;;;;;;;20.70;12.23;;;;;;;-1.45;58.29;95642.03;5010918;28;20409;-80
2023/12/18 00:29:03;;;;;;;20.92;13.88;;;;;;;-1.39;58.39;95636.03;5009337;28;20149;-80
2023/12/18 00:31:29;;;;;;;19.88;13.27;;;;;;;-1.62;57.61;95589.38;4992181;28;20038;-79
2023/12/18 00:33:56;;;;;;;24.63;13.55;;;;;;;-1.37;57.88;95626.22;4991431;28;20744;-78
2023/12/18 00:36:21;;;;;;;22.83;13.73;;;;;;;-1.18;57.56;95628.09;5014778;28;20149;-79
2023/12/18 00:38:46;;;;;;;20.45;13.70;;;;;;;-1.29;57.24;95636.50;5011128;28;20045;-79
2023/12/18 00:41:12;;;;;;;25.73;17.10;;;;;;;-1.36;57.63;95629.66;5012169;28;20394;-80
2023/12/18 00:43:38;;;;;;;28.17;15.57;;;;;;;-1.37;57.59;95644.50;5009244;28;20041;-80
2023/12/18 00:46:05;;;;;;;26.65;17.20;;;;;;;-1.47;58.40;95638.81;4991475;28;20392;-80
2023/12/18 00:48:30;;;;;;;37.80;21.90;;;;;;;-1.80;58.34;95601.34;5012918;28;20022;-80
2023/12/18 00:50:56;;;;;;;30.48;19.42;;;;;;;-1.56;59.19;95632.16;5011195;28;20729;-79
2023/12/18 00:53:21;;;;;;;31.45;19.27;;;;;;;-1.46;58.87;95641.22;5012561;28;20145;-79
2023/12/18 00:55:47;;;;;;;27.65;17.27;;;;;;;-1.62;58.43;95606.84;4992008;28;20029;-80
2023/12/18 00:58:13;;;;;;;29.67;18.25;;;;;;;-1.54;58.64;95640.59;5006291;28;20397;-81
2023/12/18 01:00:38;;;;;;;32.58;18.77;;;;;;;-1.68;59.59;95637.09;5011823;28;20507;-78
2023/12/18 01:03:04;;;;;;;29.58;18.63;;;;;;;-1.56;58.69;95624.34;5011955;28;20042;-80
2023/12/18 01:05:29;;;;;;;28.65;17.65;;;;;;;-1.79;59.50;95592.50;5009606;28;20041;-80
2023/12/18 01:07:55;;;;;;;28.40;18.15;;;;;;;-1.67;59.65;95590.94;5008595;28;20033;-78
2023/12/18 01:10:20;;;;;;;28.85;16.35;;;;;;;-1.56;59.57;95606.06;5010073;28;20045;-80
2023/12/18 01:12:46;;;;;;;29.38;18.23;;;;;;;-1.54;59.34;95604.06;5009964;28;20033;-80
2023/12/18 01:15:11;;;;;;;26.13;15.65;;;;;;;-1.62;59.25;95596.41;5011884;28;20560;-80
2023/12/18 01:17:37;;;;;;;29.20;17.65;;;;;;;-1.99;59.69;95556.66;5010796;28;20038;-78
2023/12/18 01:20:06;;;;;;;25.35;16.52;;;;;;;-1.99;59.66;95582.75;5010066;28;20040;-80
2023/12/18 01:22:32;;;;;;;27.75;15.65;;;;;;;-1.73;59.31;95586.50;5008375;28;20030;-78
2023/12/18 01:24:57;;;;;;;26.90;15.20;;;;;;;-1.46;59.22;95609.13;4996293;28;20393;-78
2023/12/18 01:27:25;;;;;;;28.27;16.10;;;;;;;-1.54;59.10;95580.56;5009320;28;20303;-79
2023/12/18 01:29:50;;;;;;;27.30;16.05;;;;;;;-1.34;58.99;95598.91;5008049;28;21422;-81
2023/12/18 01:32:15;;;;;;;26.00;14.85;;;;;;;-1.36;58.81;95583.44;5010875;28;20040;-80
2023/12/18 01:34:41;;;;;;;24.30;14.38;;;;;;;-1.34;58.75;95580.63;5010041;28;20064;-78
2023/12/18 01:37:06;;;;;;;22.63;14.73;;;;;;;-1.55;58.75;95558.06;4991220;28;20029;-79
2023/12/18 01:39:32;;;;;;;23.33;13.45;;;;;;;-1.39;58.65;95573.41;5011265;28;20176;-78
2023/12/18 01:42:01;;;;;;;23.65;13.98;;;;;;;-1.57;58.46;95550.47;4988509;28;20400;-78
2023/12/18 01:44:26;;;;;;;22.38;14.02;;;;;;;-1.63;58.32;95540.00;5008795;28;20060;-78
2023/12/18 01:46:53;;;;;;;22.67;14.32;;;;;;;-1.73;58.31;95539.53;5010792;28;20489;-78
2023/12/18 01:49:19;;;;;;;22.60;13.80;;;;;;;-1.64;58.82;95560.06;5007474;28;20064;-77
2023/12/18 01:51:46;;;;;;;21.88;14.30;;;;;;;-1.59;58.96;95554.25;4999202;28;20116;-78
2023/12/18 01:54:12;;;;;;;26.95;15.25;;;;;;;-1.68;58.41;95544.97;5008582;28;20444;-78
2023/12/18 01:56:38;;;;;;;29.52;15.55;;;;;;;-1.57;58.69;95528.78;4991853;28;20034;-78
2023/12/18 01:59:05;;;;;;;19.85;13.90;;;;;;;-1.55;58.43;95518.94;5007838;28;20048;-78
2023/12/18 02:01:31;;;;;;;25.38;14.80;;;;;;;-1.41;58.35;95549.31;4993532;28;20060;-78
2023/12/18 02:03:57;;;;;;;25.90;16.13;;;;;;;-1.49;58.01;95542.44;5008406;28;20049;-78
2023/12/18 02:06:24;;;;;;;30.50;17.23;;;;;;;-1.52;57.96;95562.91;4992283;28;20017;-79
2023/12/18 02:08:49;;;;;;;26.42;15.73;;;;;;;-1.55;57.99;95558.88;4991449;28;20068;-78
2023/12/18 02:11:15;;;;;;;29.92;17.88;;;;;;;-1.42;57.92;95563.38;5009261;28;20128;-78
2023/12/18 02:13:40;;;;;;;37.65;22.25;;;;;;;-1.55;57.81;95547.63;4983034;28;20056;-78
2023/12/18 02:16:06;;;;;;;50.25;27.95;;;;;;;-1.63;57.89;95555.66;5005381;28;20050;-77
2023/12/18 02:18:32;;;;;;;52.70;31.40;;;;;;;-1.49;58.18;95572.97;5011100;28;20029;-78
2023/12/18 02:20:58;;;;;;;40.70;25.90;;;;;;;-1.79;58.17;95517.66;5006921;28;20035;-79
2023/12/18 02:23:23;;;;;;;39.75;23.23;;;;;;;-1.60;58.51;95547.41;4997762;28;20034;-77
2023/12/18 02:25:49;;;;;;;32.10;20.38;;;;;;;-1.66;58.42;95558.66;4997258;28;20480;-78
2023/12/18 02:28:17;;;;;;;30.45;17.08;;;;;;;-1.56;58.29;95562.50;5008241;28;20099;-77
2023/12/18 02:30:43;;;;;;;31.55;18.77;;;;;;;-1.73;58.09;95523.91;5008914;28;20036;-78
2023/12/18 02:33:08;;;;;;;32.35;19.30;;;;;;;-1.81;57.85;95517.06;4990559;28;20092;-78
2023/12/18 02:35:34;;;;;;;30.13;16.88;;;;;;;-1.67;58.34;95549.22;5008774;28;20447;-77
2023/12/18 02:37:59;;;;;;;29.00;16.75;;;;;;;-1.72;58.72;95535.94;5004592;28;20558;-77
2023/12/18 02:40:26;;;;;;;31.42;17.02;;;;;;;-1.71;58.39;95537.56;5006204;28;20108;-78
2023/12/18 02:42:51;;;;;;;27.35;16.60;;;;;;;-1.73;58.43;95549.97;5004277;28;20148;-78
2023/12/18 02:45:17;;;;;;;28.00;16.38;;;;;;;-1.86;58.47;95558.56;5009195;28;20103;-79
2023/12/18 02:47:42;;;;;;;32.47;15.57;;;;;;;-1.77;58.54;95572.25;5008160;28;20518;-78
2023/12/18 02:50:08;;;;;;;24.88;15.57;;;;;;;-1.76;58.42;95561.63;5007292;28;20137;-78
2023/12/18 02:52:34;;;;;;;25.20;15.20;;;;;;;-1.65;58.50;95557.63;5009018;28;20045;-78
2023/12/18 02:55:00;;;;;;;25.25;16.13;;;;;;;-1.72;58.55;95559.41;4993661;28;20025;-77
2023/12/18 02:57:26;;;;;;;27.23;15.90;;;;;;;-1.98;58.24;95498.31;5010760;28;20025;-77
2023/12/18 02:59:51;;;;;;;28.75;16.85;;;;;;;-1.61;58.11;95548.44;5007057;28;20634;-78
2023/12/18 03:02:17;;;;;;;23.95;15.60;;;;;;;-1.68;58.06;95537.16;5004915;28;20034;-78
2023/12/18 03:04:42;;;;;;;25.13;14.35;;;;;;;-1.74;58.28;95543.16;5008991;28;20049;-79
2023/12/18 03:07:09;;;;;;;23.80;14.90;;;;;;;-2.06;58.51;95498.50;5007488;28;20452;-78
2023/12/18 03:09:35;;;;;;;24.88;16.33;;;;;;;-1.81;58.69;95535.31;5007069;28;20018;-79
2023/12/18 03:12:01;;;;;;;29.58;17.27;;;;;;;-1.70;58.44;95519.09;5006372;28;20389;-78
2023/12/18 03:14:26;;;;;;;30.38;16.05;;;;;;;-1.50;58.11;95551.28;5007976;28;20160;-78
2023/12/18 03:16:52;;;;;;;27.02;16.45;;;;;;;-1.57;58.08;95549.66;5008011;28;20505;-80
2023/12/18 03:19:18;;;;;;;26.55;16.58;;;;;;;-1.54;57.62;95541.41;5008649;28;20124;-80
2023/12/18 03:21:45;;;;;;;27.75;17.45;;;;;;;-1.57;58.24;95555.69;4996036;28;20021;-80
2023/12/18 03:24:11;;;;;;;28.55;16.25;;;;;;;-1.55;57.57;95545.03;5009232;28;20064;-81
2023/12/18 03:26:36;;;;;;;27.05;16.75;;;;;;;-1.64;58.09;95556.63;5004879;28;20148;-80
2023/12/18 03:29:05;;;;;;;27.42;17.08;;;;;;;-1.74;58.41;95545.75;4993487;28;20062;-80
2023/12/18 03:31:30;;;;;;;28.65;17.50;;;;;;;-1.65;58.39;95550.59;4994743;28;20088;-80
2023/12/18 03:33:57;;;;;;;25.67;16.80;;;;;;;-1.55;58.24;95553.66;4989227;28;20021;-80
2023/12/18 03:36:22;;;;;;;31.70;18.20;;;;;;;-1.75;58.35;95525.91;5009515;28;20025;-80
2023/12/18 03:38:48;;;;;;;24.35;16.25;;;;;;;-1.71;57.98;95516.69;4995196;28;20420;-80
2023/12/18 03:41:13;;;;;;;24.45;15.50;;;;;;;-1.74;58.17;95502.22;4989885;28;20046;-80
2023/12/18 03:43:39;;;;;;;23.90;15.88;;;;;;;-1.56;58.18;95541.63;5006183;28;20128;-79
2023/12/18 03:46:04;;;;;;;24.95;15.10;;;;;;;-1.70;58.35;95513.88;4995270;28;20116;-79
2023/12/18 03:48:30;;;;;;;22.40;15.25;;;;;;;-1.77;58.95;95512.25;5005786;28;20017;-81
2023/12/18 03:50:55;;;;;;;25.17;14.68;;;;;;;-1.70;58.41;95518.31;4995761;28;20034;-79
2023/12/18 03:53:21;;;;;;;23.00;15.00;;;;;;;-1.61;58.32;95535.41;5011248;28;20045;-80
2023/12/18 03:55:46;;;;;;;24.35;15.25;;;;;;;-2.03;58.50;95479.84;5010887;28;20029;-80
2023/12/18 03:58:12;;;;;;;29.17;15.63;;;;;;;-1.69;58.48;95517.28;5010783;28;20081;-79
2023/12/18 04:00:37;;;;;;;29.90;14.82;;;;;;;-1.73;58.95;95523.91;5009236;28;20394;-80
2023/12/18 04:03:04;;;;;;;23.77;14.70;;;;;;;-1.62;58.63;95531.16;5011257;28;20080;-80
2023/12/18 04:05:30;;;;;;;27.17;14.98;;;;;;;-1.83;58.26;95503.38;5010458;28;20113;-80
2023/12/18 04:07:55;;;;;;;27.48;14.98;;;;;;;-1.80;58.37;95517.88;5009946;28;20039;-80
2023/12/18 04:10:21;;;;;;;23.88;14.48;;;;;;;-1.76;58.72;95526.91;5010214;28;20814;-80
2023/12/18 04:12:46;;;;;;;24.40;14.98;;;;;;;-1.88;58.17;95490.94;5014100;28;20032;-80
2023/12/18 04:15:12;;;;;;;23.75;14.82;;;;;;;-1.62;58.13;95539.00;5005107;28;20034;-80
2023/12/18 04:17:37;;;;;;;27.33;15.40;;;;;;;-1.48;58.20;95553.69;5011667;28;20072;-78
2023/12/18 04:20:04;;;;;;;24.77;15.98;;;;;;;-1.51;57.83;95539.22;5005003;28;20032;-80
2023/12/18 04:22:30;;;;;;;26.85;15.98;;;;;;;-1.58;57.82;95538.41;4993922;28;20120;-80
2023/12/18 04:24:55;;;;;;;23.50;15.55;;;;;;;-1.59;58.11;95551.63;5008962;28;20082;-78
2023/12/18 04:27:21;;;;;;;24.38;14.45;;;;;;;-1.87;58.08;95508.19;4996142;28;20030;-79
2023/12/18 04:29:46;;;;;;;23.73;14.27;;;;;;;-2.03;58.61;95520.75;5005298;28;20037;-80
2023/12/18 04:32:12;;;;;;;23.38;14.00;;;;;;;-2.08;58.62;95495.25;4994253;28;20465;-81
2023/12/18 04:34:39;;;;;;;24.20;14.52;;;;;;;-1.85;58.54;95516.63;5008128;28;20041;-79
2023/12/18 04:37:05;;;;;;;22.67;14.88;;;;;;;-1.60;58.11;95542.19;5011992;28;20035;-80
2023/12/18 04:39:35;;;;;;;23.75;13.75;;;;;;;-1.63;58.04;95532.16;5007647;28;20045;-78
2023/12/18 04:42:01;;;;;;;21.08;13.43;;;;;;;-1.58;57.98;95538.41;4993458;28;20432;-80
2023/12/18 04:44:27;;;;;;;22.38;13.25;;;;;;;-1.54;58.02;95528.38;5007687;28;20026;-80
2023/12/18 04:46:52;;;;;;;23.00;13.65;;;;;;;-1.70;57.52;95529.50;5010839;28;20407;-80
2023/12/18 04:49:18;;;;;;;23.95;12.88;;;;;;;-1.80;57.64;95507.44;5006736;28;20120;-78
2023/12/18 04:51:44;;;;;;;21.77;13.27;;;;;;;-1.72;57.82;95541.16;5011242;28;20033;-79
2023/12/18 04:54:10;;;;;;;18.80;13.15;;;;;;;-1.84;58.25;95551.34;5010104;28;20025;-80
2023/12/18 04:56:35;;;;;;;22.98;13.55;;;;;;;-1.86;58.46;95535.91;5010140;28;20112;-78
2023/12/18 04:59:01;;;;;;;25.85;14.27;;;;;;;-1.83;58.57;95525.06;4993603;28;20047;-79
2023/12/18 05:01:28;;;;;;;25.88;14.90;;;;;;;-1.93;58.52;95508.16;5007651;28;20404;-80
2023/12/18 05:03:54;;;;;;;22.55;14.82;;;;;;;-1.59;58.29;95549.03;5010021;28;20862;-78
2023/12/18 05:06:20;;;;;;;27.98;15.48;;;;;;;-1.62;57.86;95542.41;5007494;28;20049;-79
2023/12/18 05:08:47;;;;;;;30.67;17.80;;;;;;;-1.90;58.00;95519.00;4993256;28;20572;-79
2023/12/18 05:11:12;;;;;;;27.65;16.20;;;;;;;-1.85;58.16;95541.91;5008454;28;20034;-80
2023/12/18 05:13:38;;;;;;;25.45;16.13;;;;;;;-1.72;58.51;95549.78;5005701;28;20045;-79
2023/12/18 05:16:04;;;;;;;28.55;16.33;;;;;;;-1.71;58.43;95545.38;5007230;28;20034;-80
2023/12/18 05:18:30;;;;;;;32.95;17.35;;;;;;;-1.75;58.52;95557.22;5010482;28;20033;-80
2023/12/18 05:20:57;;;;;;;28.13;14.88;;;;;;;-1.87;58.41;95549.94;4995777;28;20611;-79
2023/12/18 05:23:24;;;;;;;30.15;16.38;;;;;;;-2.01;58.27;95531.81;5010167;28;20691;-79
2023/12/18 05:25:50;;;;;;;27.08;16.60;;;;;;;-1.92;58.38;95544.50;5009204;28;20484;-79
2023/12/18 05:28:15;;;;;;;26.20;16.38;;;;;;;-1.75;58.78;95533.75;5009265;28;20050;-81
2023/12/18 05:30:41;;;;;;;32.67;17.80;;;;;;;-1.89;58.72;95517.19;5007182;28;20510;-79
2023/12/18 05:33:10;;;;;;;32.95;18.70;;;;;;;-1.88;58.52;95527.44;4991504;28;20034;-78
2023/12/18 05:35:36;;;;;;;26.63;15.93;;;;;;;-1.92;58.59;95523.63;4993091;28;20045;-79
2023/12/18 05:38:01;;;;;;;23.65;14.73;;;;;;;-1.86;58.49;95535.09;5007133;28;20038;-80
2023/12/18 05:40:27;;;;;;;25.95;16.33;;;;;;;-2.05;58.28;95525.38;5000770;28;20099;-80
2023/12/18 05:42:52;;;;;;;27.98;18.95;;;;;;;-2.06;58.44;95511.53;5002067;28;20076;-80
2023/12/18 05:45:18;;;;;;;27.60;16.73;;;;;;;-2.02;58.73;95531.00;4982521;28;20060;-80
2023/12/18 05:47:44;;;;;;;24.73;16.73;;;;;;;-1.96;58.46;95538.06;5001282;28;20045;-78
2023/12/18 05:50:09;;;;;;;27.17;15.95;;;;;;;-1.91;58.44;95533.06;4997848;28;20083;-78
2023/12/18 05:52:35;;;;;;;28.77;16.50;;;;;;;-2.02;58.21;95520.56;5002038;28;20130;-79
2023/12/18 05:55:00;;;;;;;29.40;18.38;;;;;;;-2.02;58.54;95541.44;5000714;28;20026;-76
2023/12/18 05:57:26;;;;;;;24.27;17.40;;;;;;;-2.15;58.99;95519.69;4982583;28;20116;-79
2023/12/18 05:59:51;;;;;;;23.40;15.43;;;;;;;-2.42;58.62;95477.84;4999971;28;20053;-80
2023/12/18 06:02:17;;;;;;;23.92;15.38;;;;;;;-1.91;58.83;95537.47;4999491;28;20475;-79
2023/12/18 06:04:43;;;;;;;27.25;15.60;;;;;;;-1.87;58.62;95554.34;4977064;28;20441;-79
2023/12/18 06:07:10;;;;;;;28.75;17.90;;;;;;;-1.87;58.39;95549.13;4979884;28;20026;-80
2023/12/18 06:09:35;;;;;;;30.13;18.52;;;;;;;-1.72;58.39;95551.59;5000930;28;20139;-79
2023/12/18 06:12:01;;;;;;;22.85;15.70;;;;;;;-1.93;58.71;95540.25;4983029;28;20043;-78
2023/12/18 06:14:26;;;;;;;25.27;15.23;;;;;;;-1.78;58.51;95541.94;5002208;28;20566;-80
2023/12/18 06:16:52;;;;;;;24.38;15.15;;;;;;;-1.72;58.35;95556.81;4979572;28;20548;-79
2023/12/18 06:19:17;;;;;;;27.15;18.20;;;;;;;-1.68;58.32;95558.84;4999813;28;20244;-79
2023/12/18 06:21:43;;;;;;;28.20;17.98;;;;;;;-1.71;58.54;95561.84;4982298;28;20022;-79
2023/12/18 06:24:08;;;;;;;26.98;16.70;;;;;;;-1.91;58.85;95548.72;5000175;28;20431;-79
2023/12/18 06:26:34;;;;;;;27.25;16.70;;;;;;;-1.96;58.95;95522.41;4996659;28;22153;-79
2023/12/18 06:29:01;;;;;;;29.55;16.92;;;;;;;-1.69;59.01;95556.41;4988983;28;20485;-80
2023/12/18 06:31:26;;;;;;;27.42;15.50;;;;;;;-1.87;58.67;95533.47;4999689;28;20469;-80
2023/12/18 06:33:52;;;;;;;24.38;15.90;;;;;;;-1.77;58.68;95543.53;4984347;28;20064;-80
2023/12/18 06:36:19;;;;;;;27.13;16.38;;;;;;;-1.68;58.68;95542.38;5000721;28;20041;-79
2023/12/18 06:38:48;;;;;;;26.73;15.82;;;;;;;-1.69;58.77;95538.16;5000030;28;20212;-79
2023/12/18 06:41:14;;;;;;;25.98;16.38;;;;;;;-1.66;59.27;95535.16;4998624;28;20124;-78
2023/12/18 06:43:40;;;;;;;28.40;16.77;;;;;;;-1.71;59.30;95511.47;4985429;28;20044;-78
2023/12/18 06:46:06;;;;;;;23.92;15.40;;;;;;;-1.58;59.14;95517.53;4987266;28;20022;-80
2023/12/18 06:48:32;;;;;;;32.03;18.10;;;;;;;-1.39;58.92;95532.44;5001183;28;20029;-79
2023/12/18 06:50:58;;;;;;;28.80;16.52;;;;;;;-1.38;58.92;95539.28;4997125;28;20505;-80
2023/12/18 06:53:23;;;;;;;30.25;17.13;;;;;;;-1.59;59.05;95499.47;4985181;28;20075;-79
2023/12/18 06:55:49;;;;;;;27.95;17.85;;;;;;;-1.40;58.93;95522.19;4999383;28;20505;-79
2023/12/18 06:58:15;;;;;;;24.55;16.55;;;;;;;-1.33;59.08;95509.97;4985534;28;20123;-79
2023/12/18 07:00:41;;;;;;;25.48;18.45;;;;;;;-1.43;58.95;95499.91;4997805;28;20129;-81
2023/12/18 07:03:07;;;;;;;28.00;18.05;;;;;;;-1.28;58.81;95525.03;5000043;28;20047;-80
2023/12/18 07:05:33;;;;;;;32.70;21.92;;;;;;;-1.17;59.23;95545.34;4997378;28;20396;-80
2023/12/18 07:07:59;;;;;;;35.38;23.25;;;;;;;-1.19;59.46;95526.47;4997927;28;20661;-79
2023/12/18 07:10:25;;;;;;;34.05;21.70;;;;;;;-0.97;59.43;95552.19;4993343;28;20212;-79
2023/12/18 07:12:50;;;;;;;37.72;22.70;;;;;;;-1.00;59.34;95552.59;4997303;28;20496;-78
2023/12/18 07:15:16;;;;;;;36.33;22.20;;;;;;;-1.03;58.99;95537.34;4990176;28;20653;-78
2023/12/18 07:17:41;;;;;;;43.33;24.70;;;;;;;-1.05;58.64;95523.66;4997779;28;20515;-78
2023/12/18 07:20:11;;;;;;;48.25;28.27;;;;;;;-0.70;58.64;95567.91;4995486;28;20714;-77
2023/12/18 07:22:39;;;;;;;44.20;28.70;;;;;;;-0.86;58.87;95526.50;4998858;28;20058;-80
2023/12/18 07:25:05;;;;;;;45.65;27.48;;;;;;;-0.81;59.03;95526.69;4996797;28;20037;-79
2023/12/18 07:27:30;;;;;;;47.83;28.42;;;;;;;-1.03;59.73;95516.44;4986741;28;20484;-77
2023/12/18 07:29:56;;;;;;;43.83;28.15;;;;;;;-1.26;62.17;95531.66;4984951;28;20680;-79
2023/12/18 07:32:21;;;;;;;46.80;28.65;;;;;;;-0.91;61.12;95534.13;4998884;28;20403;-77
2023/12/18 07:34:47;;;;;;;53.83;31.35;;;;;;;-1.12;61.48;95556.78;4994589;28;20071;-80
2023/12/18 07:37:22;;;;;;;47.90;30.13;;;;;;;-0.90;62.05;95552.22;4993791;28;20087;-76
2023/12/18 07:39:47;;;;;;;55.00;35.65;;;;;;;-0.71;61.02;95556.66;4978438;28;20057;-79
2023/12/18 07:42:14;;;;;;;56.40;34.40;;;;;;;-0.47;60.16;95551.81;4970560;28;20691;-76
2023/12/18 07:44:40;;;;;;;55.40;34.15;;;;;;;-0.66;60.34;95517.66;4989685;28;20073;-77
2023/12/18 07:47:07;;;;;;;48.85;30.58;;;;;;;-0.60;60.06;95510.84;4982983;28;20692;-78
2023/12/18 07:49:35;;;;;;;47.35;29.17;;;;;;;-0.32;59.44;95531.50;4983213;28;20057;-78
2023/12/18 07:52:01;;;;;;;49.85;30.90;;;;;;;-0.48;59.66;95505.81;4987260;28;20556;-77
2023/12/18 07:54:26;;;;;;;48.42;31.50;;;;;;;-0.49;59.99;95491.13;4987906;28;20032;-77
2023/12/18 07:56:52;;;;;;;46.95;30.23;;;;;;;-0.73;60.11;95482.09;4999792;28;21064;-77
2023/12/18 07:59:19;;;;;;;45.25;28.60;;;;;;;-0.59;61.05;95502.00;4981579;28;20249;-80
2023/12/18 08:01:45;;;;;;;45.97;29.60;;;;;;;-0.44;60.61;95541.78;4994411;28;20314;-77
2023/12/18 08:04:11;;;;;;;49.38;28.15;;;;;;;-0.42;60.38;95508.38;4981461;28;20475;-77
2023/12/18 08:06:37;;;;;;;50.58;30.45;;;;;;;-0.37;61.38;95537.34;4980733;28;20382;-76
2023/12/18 08:09:03;;;;;;;48.10;30.95;;;;;;;-0.06;61.15;95539.31;4994298;28;20396;-79
2023/12/18 08:11:30;;;;;;;43.65;28.92;;;;;;;-0.07;60.62;95514.16;4993802;28;20053;-77
2023/12/18 08:13:56;;;;;;;47.58;29.75;;;;;;;0.12;60.32;95530.81;4995164;28;20033;-77
2023/12/18 08:16:28;;;;;;;48.30;30.02;;;;;;;0.27;59.87;95526.13;4995572;28;20037;-78
2023/12/18 08:18:53;;;;;;;50.60;31.05;;;;;;;-0.07;60.85;95533.28;4983293;28;20067;-77
2023/12/18 08:21:20;;;;;;;50.30;33.08;;;;;;;-0.28;61.66;95545.78;4980560;28;20455;-78
2023/12/18 08:23:48;;;;;;;55.72;34.22;;;;;;;-0.65;63.64;95518.47;4995616;28;20661;-77
2023/12/18 08:26:14;;;;;;;52.72;32.53;;;;;;;-0.22;62.61;95531.88;4995078;28;20745;-76
2023/12/18 08:28:43;;;;;;;56.90;32.00;;;;;;;-0.00;61.26;95527.22;4981889;28;20139;-77
2023/12/18 08:31:08;;;;;;;53.75;32.97;;;;;;;-0.26;62.39;95539.34;4992644;28;20026;-77
2023/12/18 08:33:34;;;;;;;51.05;32.97;;;;;;;0.20;61.16;95551.53;4981724;28;20044;-77
2023/12/18 08:36:00;;;;;;;53.05;32.55;;;;;;;0.01;60.93;95526.22;4986972;28;20307;-76
2023/12/18 08:38:28;;;;;;;53.88;33.40;;;;;;;0.06;60.91;95523.78;4996970;28;20170;-78
2023/12/18 08:40:55;;;;;;;51.03;34.03;;;;;;;0.25;61.20;95546.47;4981586;28;20407;-76
2023/12/18 08:43:22;;;;;;;54.22;33.85;;;;;;;0.51;60.42;95540.31;4987008;28;20041;-77
2023/12/18 08:45:48;;;;;;;53.33;34.53;;;;;;;0.58;59.76;95534.06;4987987;28;20018;-78
2023/12/18 08:48:14;;;;;;;55.97;32.05;;;;;;;0.48;59.86;95519.81;4997880;28;21027;-78
2023/12/18 08:50:39;;;;;;;58.47;35.13;;;;;;;0.63;59.77;95530.81;5000700;28;20973;-77
2023/12/18 08:53:05;;;;;;;60.38;34.03;;;;;;;0.73;59.75;95529.34;4978615;28;20109;-77
2023/12/18 08:55:31;;;;;;;61.70;35.20;;;;;;;0.39;60.25;95500.94;4972320;28;20132;-75
2023/12/18 08:57:56;;;;;;;60.08;37.38;;;;;;;0.84;59.76;95537.56;4971934;28;20029;-76
2023/12/18 09:00:22;;;;;;;59.78;35.20;;;;;;;0.63;59.46;95487.09;4999644;28;20428;-77
2023/12/18 09:02:48;;;;;;;60.20;35.70;;;;;;;0.75;59.86;95524.69;5000901;28;20364;-76
2023/12/18 09:05:13;;;;;;;57.50;36.45;;;;;;;1.02;59.65;95532.41;4987743;28;20179;-77
2023/12/18 09:07:39;;;;;;;54.00;36.70;;;;;;;1.12;59.29;95537.97;5002629;28;20419;-79
2023/12/18 09:10:06;;;;;;;62.65;39.10;;;;;;;0.86;59.93;95507.50;5001622;28;20029;-76
2023/12/18 09:12:31;;;;;;;57.20;36.53;;;;;;;1.13;58.78;95529.13;5001790;28;20060;-79
2023/12/18 09:14:57;;;;;;;58.22;37.08;;;;;;;0.96;58.83;95496.56;5000105;28;20133;-80
2023/12/18 09:17:22;;;;;;;61.72;39.85;;;;;;;0.97;59.05;95501.59;4999554;28;20056;-79
2023/12/18 09:19:48;;;;;;;62.58;38.95;;;;;;;0.98;58.94;95484.88;5002670;28;20038;-79
2023/12/18 09:22:14;;;;;;;60.75;39.65;;;;;;;1.29;58.48;95507.59;4999470;28;20030;-79
2023/12/18 09:24:39;;;;;;;61.88;37.15;;;;;;;1.23;58.25;95511.06;4998762;28;20026;-79
2023/12/18 09:27:05;;;;;;;59.92;38.42;;;;;;;1.29;59.15;95504.16;5000087;28;20103;-79
2023/12/18 09:29:30;;;;;;;59.58;38.05;;;;;;;1.30;58.97;95496.09;4994768;28;20029;-79
2023/12/18 09:31:56;;;;;;;64.05;39.28;;;;;;;1.14;58.24;95483.53;4998536;28;20149;-79
2023/12/18 09:34:22;;;;;;;73.65;43.05;;;;;;;0.94;59.74;95460.09;4984181;28;20073;-78
2023/12/18 09:36:48;;;;;;;62.33;42.10;;;;;;;1.16;59.85;95481.50;4980747;28;20104;-79
2023/12/18 09:39:14;;;;;;;66.68;42.28;;;;;;;0.74;61.07;95488.25;4981556;28;20526;-78
2023/12/18 09:41:40;;;;;;;64.90;40.47;;;;;;;0.99;61.25;95485.66;5008210;28;20049;-78
2023/12/18 09:44:05;;;;;;;67.47;41.45;;;;;;;1.07;60.36;95443.47;5006440;28;20041;-81
2023/12/18 09:46:31;;;;;;;67.47;42.50;;;;;;;1.39;59.29;95445.00;5007396;28;20493;-79
2023/12/18 09:48:57;;;;;;;70.15;44.92;;;;;;;1.65;58.59;95447.38;5004410;28;20022;-79
2023/12/18 09:51:25;;;;;;;67.32;44.85;;;;;;;2.01;58.62;95466.81;5009305;28;20027;-78
2023/12/18 09:53:52;;;;;;;76.90;47.10;;;;;;;2.09;58.31;95456.00;5003013;28;20048;-81
2023/12/18 09:56:21;;;;;;;79.25;48.28;;;;;;;2.21;57.71;95453.44;5006240;28;20101;-80
2023/12/18 09:58:47;;;;;;;85.05;52.00;;;;;;;2.03;57.62;95451.63;5012100;28;20038;-78
2023/12/18 10:01:16;;;;;;;80.38;49.45;;;;;;;2.06;57.69;95456.44;4992158;28;20021;-79
2023/12/18 10:03:42;;;;;;;85.43;51.15;;;;;;;1.31;59.04;95408.59;5006314;28;20030;-78
2023/12/18 10:06:08;;;;;;;75.28;50.45;;;;;;;1.83;58.73;95461.50;5009660;28;20511;-78
2023/12/18 10:08:34;;;;;;;78.13;49.97;;;;;;;2.15;57.97;95449.06;5006025;28;20186;-77
2023/12/18 10:11:00;;;;;;;77.65;51.80;;;;;;;2.35;57.11;95445.16;5009446;28;20068;-78
2023/12/18 10:13:25;;;;;;;77.30;49.38;;;;;;;2.44;57.25;95433.34;4989553;28;20113;-78
2023/12/18 10:15:53;;;;;;;81.82;51.17;;;;;;;2.52;56.66;95434.84;5006474;28;20056;-78
2023/12/18 10:18:22;;;;;;;80.80;52.13;;;;;;;2.05;57.92;95444.34;4992800;28;20033;-78
2023/12/18 10:20:48;;;;;;;80.70;49.55;;;;;;;1.98;59.04;95433.13;5001538;28;20042;-79
2023/12/18 10:23:14;;;;;;;85.07;50.55;;;;;;;1.73;59.74;95433.16;5008220;28;20641;-78
2023/12/18 10:25:40;;;;;;;78.93;51.65;;;;;;;2.00;59.78;95447.63;4986179;28;20389;-78
2023/12/18 10:28:07;;;;;;;79.50;50.05;;;;;;;2.22;58.89;95440.09;4995425;28;20032;-79
2023/12/18 10:30:34;;;;;;;74.47;48.13;;;;;;;2.33;58.81;95444.59;5007130;28;20029;-79
2023/12/18 10:33:05;;;;;;;73.20;47.80;;;;;;;2.29;58.59;95419.00;4999509;28;20057;-78
2023/12/18 10:35:31;;;;;;;72.78;48.95;;;;;;;2.47;58.48;95430.25;5006836;28;20049;-79
2023/12/18 10:38:00;;;;;;;74.70;48.88;;;;;;;2.56;56.90;95403.66;5001575;28;20049;-79
2023/12/18 10:40:27;;;;;;;73.13;46.75;;;;;;;2.70;56.91;95410.34;4988001;28;20520;-79
2023/12/18 10:43:11;;;;;;;72.35;48.67;;;;;;;2.81;56.84;95401.69;5007961;28;20476;-79
2023/12/18 10:45:38;;;;;;;75.93;45.55;;;;;;;3.10;56.50;95416.59;5007253;28;20041;-78
2023/12/18 10:48:08;;;;;;;67.68;44.13;;;;;;;3.04;56.28;95391.19;5006281;28;20045;-81
2023/12/18 10:50:34;;;;;;;75.07;45.50;;;;;;;2.89;56.70;95402.16;5005789;28;20029;-79
2023/12/18 10:53:01;;;;;;;68.68;45.45;;;;;;;3.11;56.32;95380.59;4992637;28;20033;-79
2023/12/18 10:55:27;;;;;;;68.72;44.42;;;;;;;3.33;56.05;95389.53;5010330;28;20037;-79
2023/12/18 10:58:03;;;;;;;71.60;46.10;;;;;;;3.42;56.14;95388.13;5008723;28;20072;-79
2023/12/18 11:00:32;;;;;;;68.13;46.13;;;;;;;3.58;55.86;95381.34;4991616;28;20038;-79
2023/12/18 11:02:59;;;;;;;66.28;44.90;;;;;;;3.62;55.58;95372.00;4988730;28;20025;-79
2023/12/18 11:05:25;;;;;;;68.00;45.33;;;;;;;3.62;55.31;95359.63;5006765;28;20049;-79
2023/12/18 11:07:51;;;;;;;69.78;45.78;;;;;;;3.82;55.22;95364.50;5007755;28;20801;-79
2023/12/18 11:10:18;;;;;;;64.90;44.17;;;;;;;3.81;55.19;95355.00;5006254;28;20045;-79
2023/12/18 11:12:47;;;;;;;63.60;44.20;;;;;;;3.88;54.64;95350.41;5007359;28;20029;-79
2023/12/18 11:15:30;;;;;;;68.45;43.25;;;;;;;3.96;54.85;95334.25;4984703;28;20034;-79